createdAt,value
2018-08-03T00:00:54.937Z,97014.54
2018-08-03T00:03:22.273Z,97015.52
2018-08-03T00:05:49.649Z,97013.19
2018-08-03T00:08:16.899Z,97015.69
2018-08-03T00:10:44.246Z,97012.03
2018-08-03T00:13:11.521Z,97011.19
2018-08-03T00:15:38.860Z,97010.87
2018-08-03T00:18:06.188Z,97002.20
2018-08-03T00:20:33.456Z,97015.17
2018-08-03T00:23:00.749Z,97015.19
2018-08-03T00:25:28.128Z,97011.36
2018-08-03T00:27:55.429Z,97012.96
2018-08-03T00:30:22.789Z,97016.59
2018-08-03T00:32:50.101Z,97017.75
2018-08-03T00:35:17.543Z,97013.41
2018-08-03T00:37:44.822Z,97010.42
2018-08-03T00:40:12.183Z,97009.38
2018-08-03T00:42:39.526Z,97007.00
2018-08-03T00:45:06.855Z,97004.03
2018-08-03T00:47:34.437Z,96999.23
2018-08-03T00:50:01.875Z,96995.25
2018-08-03T00:52:29.187Z,97000.25
2018-08-03T00:54:56.523Z,97001.08
2018-08-03T00:57:23.812Z,97000.92
2018-08-03T00:59:51.080Z,96996.73
2018-08-03T01:02:18.445Z,97000.36
2018-08-03T01:04:45.699Z,96996.02
2018-08-03T01:07:12.979Z,97001.62
2018-08-03T01:09:40.332Z,97004.31
2018-08-03T01:12:07.622Z,96997.04
2018-08-03T01:14:34.917Z,97000.72
2018-08-03T01:17:02.278Z,97002.55
2018-08-03T01:19:29.541Z,97001.86
2018-08-03T01:21:56.873Z,97002.68
2018-08-03T01:24:24.195Z,96996.70
2018-08-03T01:26:51.507Z,97003.65
2018-08-03T01:29:18.872Z,96994.66
2018-08-03T01:31:46.317Z,97000.78
2018-08-03T01:34:13.614Z,97001.11
2018-08-03T01:36:40.983Z,96999.42
2018-08-03T01:39:08.769Z,96997.61
2018-08-03T01:41:36.076Z,96998.39
2018-08-03T01:44:03.406Z,96996.58
2018-08-03T01:46:30.715Z,96994.59
2018-08-03T01:48:58.072Z,96996.20
2018-08-03T01:51:25.312Z,96991.53
2018-08-03T01:53:52.655Z,96989.39
2018-08-03T01:56:20.050Z,96992.45
2018-08-03T01:58:47.358Z,96998.37
2018-08-03T02:01:14.703Z,97002.06
2018-08-03T02:03:42.063Z,97000.22
2018-08-03T02:06:09.381Z,96996.02
2018-08-03T02:08:36.743Z,96997.00
2018-08-03T02:11:04.304Z,96998.66
2018-08-03T02:13:31.567Z,96997.34
2018-08-03T02:15:58.889Z,96991.22
2018-08-03T02:18:26.166Z,96987.58
2018-08-03T02:20:53.513Z,96990.52
2018-08-03T02:23:20.853Z,96989.33
2018-08-03T02:25:48.227Z,96984.64
2018-08-03T02:28:15.532Z,96982.51
2018-08-03T02:30:42.876Z,96968.73
2018-08-03T02:33:10.241Z,96979.86
2018-08-03T02:35:37.645Z,96987.67
2018-08-03T02:38:04.960Z,96988.66
2018-08-03T02:40:32.339Z,96985.83
2018-08-03T02:42:59.568Z,96989.95
2018-08-03T02:45:26.858Z,96988.80
2018-08-03T02:47:54.111Z,96986.78
2018-08-03T02:50:21.357Z,96981.52
2018-08-03T02:52:48.633Z,96984.05
2018-08-03T02:55:16.000Z,96978.39
2018-08-03T02:57:43.597Z,96978.39
2018-08-03T03:00:10.903Z,96979.72
2018-08-03T03:02:38.235Z,96981.39
2018-08-03T03:05:05.574Z,96978.07
2018-08-03T03:07:32.952Z,96986.36
2018-08-03T03:10:00.205Z,96983.37
2018-08-03T03:12:27.543Z,96987.39
2018-08-03T03:14:55.041Z,96985.61
2018-08-03T03:17:22.347Z,96983.44
2018-08-03T03:19:49.683Z,96980.92
2018-08-03T03:22:16.968Z,96986.13
2018-08-03T03:24:44.283Z,96985.63
2018-08-03T03:27:11.629Z,96984.42
2018-08-03T03:29:38.901Z,96991.00
2018-08-03T03:32:06.147Z,96979.73
2018-08-03T03:34:33.378Z,96985.41
2018-08-03T03:37:00.795Z,96981.20
2018-08-03T03:39:28.091Z,96983.69
2018-08-03T03:41:55.422Z,96979.44
2018-08-03T03:44:22.774Z,96985.61
2018-08-03T03:46:50.091Z,96982.37
2018-08-03T03:49:17.329Z,96982.19
2018-08-03T03:51:44.590Z,96982.70
2018-08-03T03:54:12.005Z,96978.98
2018-08-03T03:56:39.297Z,96981.95
2018-08-03T03:59:06.615Z,96982.27
2018-08-03T04:01:33.908Z,96974.66
2018-08-03T04:04:01.831Z,96986.86
2018-08-03T04:06:29.087Z,96994.67
2018-08-03T04:08:56.428Z,96988.98
2018-08-03T04:11:23.715Z,96989.64
2018-08-03T04:13:51.072Z,96988.80
2018-08-03T04:16:18.371Z,96989.50
2018-08-03T04:18:45.616Z,96986.53
2018-08-03T04:21:12.918Z,96995.13
2018-08-03T04:23:40.186Z,96997.80
2018-08-03T04:26:07.426Z,96997.52
2018-08-03T04:28:34.696Z,97008.77
2018-08-03T04:31:01.937Z,97008.05
2018-08-03T04:33:29.185Z,97007.70
2018-08-03T04:35:56.381Z,97008.79
2018-08-03T04:38:23.777Z,97011.69
2018-08-03T04:40:51.063Z,97005.08
2018-08-03T04:43:18.456Z,97013.42
2018-08-03T04:45:45.775Z,97020.37
2018-08-03T04:48:13.094Z,97014.77
2018-08-03T04:50:40.432Z,97014.51
2018-08-03T04:53:07.682Z,97017.03
2018-08-03T04:55:35.031Z,97015.70
2018-08-03T04:58:02.316Z,97014.43
2018-08-03T05:00:29.619Z,97014.03
2018-08-03T05:02:56.859Z,97013.09
2018-08-03T05:05:24.159Z,97017.07
2018-08-03T05:07:51.491Z,97013.67
2018-08-03T05:10:18.803Z,97013.34
2018-08-03T05:15:19.817Z,97009.27
2018-08-03T05:17:47.022Z,97010.20
2018-08-03T05:20:14.333Z,97007.73
2018-08-03T05:22:41.597Z,97011.72
2018-08-03T05:25:08.882Z,97009.97
2018-08-03T05:27:36.145Z,97016.19
2018-08-03T05:30:04.675Z,97014.77
2018-08-03T05:32:31.966Z,97018.33
2018-08-03T05:34:59.239Z,97017.48
2018-08-03T05:37:26.559Z,97018.25
2018-08-03T05:39:54.036Z,97029.93
2018-08-03T05:45:00.853Z,97027.00
2018-08-03T05:47:28.079Z,97024.98
2018-08-03T05:49:55.437Z,97030.11
2018-08-03T05:52:22.891Z,97026.48
2018-08-03T05:54:50.184Z,97027.48
2018-08-03T05:57:17.455Z,97026.69
2018-08-03T05:59:44.733Z,97031.41
2018-08-03T06:02:12.005Z,97031.13
2018-08-03T06:04:39.340Z,97027.34
2018-08-03T06:07:06.607Z,97035.31
2018-08-03T06:09:33.994Z,97040.83
2018-08-03T06:12:01.275Z,97033.86
2018-08-03T06:14:28.608Z,97033.84
2018-08-03T06:16:55.842Z,97032.83
2018-08-03T06:21:56.268Z,97024.47
2018-08-03T06:24:23.603Z,97028.48
2018-08-03T06:26:50.812Z,97021.81
2018-08-03T06:29:18.136Z,97026.56
2018-08-03T06:31:45.492Z,97024.96
2018-08-03T06:34:12.821Z,97028.57
2018-08-03T06:36:40.066Z,97031.23
2018-08-03T06:39:08.342Z,97025.17
2018-08-03T06:41:35.816Z,97029.14
2018-08-03T06:44:03.155Z,97031.13
2018-08-03T06:46:30.479Z,97029.48
2018-08-03T06:48:57.799Z,97024.89
2018-08-03T06:51:25.100Z,97027.29
2018-08-03T06:53:52.397Z,97025.60
2018-08-03T06:56:19.725Z,97020.20
2018-08-03T06:58:47.000Z,97020.86
2018-08-03T07:01:14.290Z,97015.18
2018-08-03T07:03:41.634Z,97007.36
2018-08-03T07:06:08.875Z,97017.09
2018-08-03T07:08:36.242Z,97020.08
2018-08-03T07:11:03.527Z,97019.80
2018-08-03T07:13:30.811Z,97022.64
2018-08-03T07:15:58.097Z,97017.99
2018-08-03T07:18:25.416Z,97022.18
2018-08-03T07:20:52.778Z,97014.66
2018-08-03T07:23:20.104Z,97018.13
2018-08-03T07:25:47.411Z,97018.88
2018-08-03T07:28:14.660Z,97014.28
2018-08-03T07:30:41.946Z,97020.77
2018-08-03T07:33:09.211Z,97020.23
2018-08-03T07:35:36.432Z,97018.91
2018-08-03T07:38:03.708Z,97016.45
2018-08-03T07:40:30.970Z,97021.32
2018-08-03T07:42:58.325Z,97022.76
2018-08-03T07:45:25.599Z,97018.91
2018-08-03T07:47:52.841Z,97017.80
2018-08-03T07:50:20.110Z,97014.73
2018-08-03T07:52:47.360Z,97009.31
2018-08-03T07:55:14.612Z,97017.94
2018-08-03T07:57:42.188Z,97015.50
2018-08-03T08:00:09.564Z,97016.16
2018-08-03T08:02:36.863Z,97011.05
2018-08-03T08:05:04.173Z,97011.28
2018-08-03T08:07:31.505Z,97002.40
2018-08-03T08:09:58.821Z,97010.55
2018-08-03T08:12:26.132Z,97012.39
2018-08-03T08:14:54.379Z,97008.56
2018-08-03T08:17:21.779Z,97013.94
2018-08-03T08:19:49.057Z,97014.75
2018-08-03T08:22:16.313Z,97008.80
2018-08-03T08:24:43.594Z,97001.73
2018-08-03T08:27:10.834Z,97005.42
2018-08-03T08:29:38.185Z,97003.08
2018-08-03T08:32:05.534Z,97012.76
2018-08-03T08:34:32.783Z,97002.84
2018-08-03T08:37:00.049Z,97005.36
2018-08-03T08:39:27.355Z,97004.98
2018-08-03T08:41:54.636Z,97002.98
2018-08-03T08:44:21.912Z,97006.06
2018-08-03T08:46:49.159Z,96999.74
2018-08-03T08:49:16.536Z,97001.31
2018-08-03T08:51:43.777Z,96996.02
2018-08-03T08:54:11.162Z,97001.23
2018-08-03T08:56:38.398Z,97002.84
2018-08-03T08:59:05.656Z,96999.07
2018-08-03T09:01:32.937Z,96994.32
2018-08-03T09:04:00.202Z,96988.83
2018-08-03T09:06:27.502Z,96997.50
2018-08-03T09:08:54.877Z,96992.34
2018-08-03T09:11:22.226Z,96995.05
2018-08-03T09:13:49.541Z,96994.16
2018-08-03T09:16:16.868Z,97002.09
2018-08-03T09:18:44.259Z,96989.95
2018-08-03T09:21:11.500Z,96990.73
2018-08-03T09:23:39.543Z,96987.59
2018-08-03T09:26:06.866Z,96988.04
2018-08-03T09:28:34.220Z,96992.74
2018-08-03T09:31:01.713Z,96984.82
2018-08-03T09:33:28.974Z,96982.20
2018-08-03T09:35:56.254Z,96978.55
2018-08-03T09:38:23.623Z,96982.09
2018-08-03T09:40:50.946Z,96938.45
2018-08-03T09:43:18.262Z,96983.73
2018-08-03T09:45:45.640Z,96974.89
2018-08-03T09:48:13.158Z,96976.22
2018-08-03T09:50:40.420Z,96972.96
2018-08-03T09:53:07.787Z,96970.33
2018-08-03T09:55:35.108Z,96967.34
2018-08-03T09:58:02.457Z,96963.02
2018-08-03T10:00:35.430Z,96963.45
2018-08-03T10:03:02.785Z,96956.81
2018-08-03T10:05:30.071Z,96955.09
2018-08-03T10:07:57.400Z,96956.05
2018-08-03T10:10:24.766Z,96958.64
2018-08-03T10:12:52.721Z,96953.17
2018-08-03T10:15:20.039Z,96955.88
2018-08-03T10:17:47.352Z,96959.67
2018-08-03T10:20:15.150Z,96951.55
2018-08-03T10:22:42.424Z,96946.88
2018-08-03T10:25:09.847Z,96938.80
2018-08-03T10:27:37.372Z,96938.70
2018-08-03T10:30:05.528Z,96938.33
2018-08-03T10:32:32.821Z,96940.06
2018-08-03T10:35:00.202Z,96935.76
2018-08-03T10:37:27.482Z,96938.62
2018-08-03T10:39:54.826Z,96933.23
2018-08-03T10:42:22.092Z,96925.81
2018-08-03T10:44:49.399Z,96931.16
2018-08-03T10:47:16.746Z,96928.59
2018-08-03T10:49:44.056Z,96928.41
2018-08-03T10:52:11.365Z,96929.55
2018-08-03T10:54:38.656Z,96936.16
2018-08-03T10:57:05.957Z,96928.44
2018-08-03T10:59:33.319Z,96927.05
2018-08-03T11:02:00.667Z,96928.80
2018-08-03T11:04:28.007Z,96923.90
2018-08-03T11:06:55.664Z,96922.37
2018-08-03T11:09:22.923Z,96917.52
2018-08-03T11:11:50.198Z,96917.09
2018-08-03T11:14:17.716Z,96908.99
2018-08-03T11:16:45.063Z,96908.33
2018-08-03T11:19:12.494Z,96908.30
2018-08-03T11:21:39.945Z,96910.41
2018-08-03T11:24:07.336Z,96909.48
2018-08-03T11:26:34.639Z,96896.52
2018-08-03T11:29:01.933Z,96900.05
2018-08-03T11:31:29.907Z,96895.45
2018-08-03T11:33:57.197Z,96894.53
2018-08-03T11:36:25.111Z,96890.25
2018-08-03T11:38:52.389Z,96885.44
2018-08-03T11:41:19.703Z,96883.61
2018-08-03T11:43:47.000Z,96885.12
2018-08-03T11:46:14.353Z,96877.97
2018-08-03T11:48:41.723Z,96880.77
2018-08-03T11:51:09.038Z,96876.44
2018-08-03T11:53:36.357Z,96871.62
2018-08-03T11:56:03.746Z,96869.33
2018-08-03T11:58:31.197Z,96868.87
2018-08-03T12:00:58.615Z,96872.75
2018-08-03T12:03:25.957Z,96872.48
2018-08-03T12:05:53.266Z,96857.82
2018-08-03T12:08:20.610Z,96859.17
2018-08-03T12:10:48.029Z,96863.78
2018-08-03T12:13:15.412Z,96864.92
2018-08-03T12:15:42.663Z,96859.66
2018-08-03T12:18:12.987Z,96857.67
2018-08-03T12:20:40.888Z,96852.80
2018-08-03T12:23:08.343Z,96853.23
2018-08-03T12:25:35.852Z,96857.96
2018-08-03T12:28:03.259Z,96847.31
2018-08-03T12:30:30.592Z,96852.94
2018-08-03T12:32:57.908Z,96846.59
2018-08-03T12:35:25.362Z,96844.45
2018-08-03T12:37:52.883Z,96844.84
2018-08-03T12:40:20.179Z,96838.46
2018-08-03T12:42:47.491Z,96834.30
2018-08-03T12:45:14.853Z,96826.81
2018-08-03T12:47:42.122Z,96829.00
2018-08-03T12:50:09.409Z,96836.17
2018-08-03T12:52:36.953Z,96829.36
2018-08-03T12:55:04.270Z,96830.02
2018-08-03T12:57:31.889Z,96825.94
2018-08-03T12:59:59.256Z,96821.46
2018-08-03T13:02:26.560Z,96826.19
2018-08-03T13:04:54.058Z,96830.34
2018-08-03T13:07:21.551Z,96824.16
2018-08-03T13:09:48.812Z,96819.75
2018-08-03T13:12:16.147Z,96817.89
2018-08-03T13:14:43.661Z,96813.84
2018-08-03T13:17:10.972Z,96810.75
2018-08-03T13:19:38.260Z,96813.38
2018-08-03T13:22:06.218Z,96811.52
2018-08-03T13:24:33.485Z,96807.09
2018-08-03T13:27:01.090Z,96810.42
2018-08-03T13:29:48.725Z,96798.47
2018-08-03T13:32:16.008Z,96798.08
2018-08-03T13:34:43.286Z,96791.91
2018-08-03T13:37:10.622Z,96789.50
2018-08-03T13:39:37.924Z,96792.05
2018-08-03T13:42:05.183Z,96793.81
2018-08-03T13:44:32.534Z,96788.24
2018-08-03T13:46:59.794Z,96786.23
2018-08-03T13:49:27.225Z,96783.14
2018-08-03T13:51:54.634Z,96782.39
2018-08-03T13:54:22.041Z,96774.91
2018-08-03T13:56:49.340Z,96773.55
2018-08-03T13:59:16.721Z,96777.53
2018-08-03T14:01:55.609Z,96770.30
2018-08-03T14:04:23.049Z,96774.50
2018-08-03T14:06:50.331Z,96768.80
2018-08-03T14:09:17.718Z,96773.39
2018-08-03T14:11:44.988Z,96779.03
2018-08-03T14:14:12.285Z,96769.33
2018-08-03T14:16:39.512Z,96762.80
2018-08-03T14:19:06.839Z,96766.50
2018-08-03T14:21:34.162Z,96760.63
2018-08-03T14:24:01.532Z,96753.59
2018-08-03T14:26:29.696Z,96754.40
2018-08-03T14:28:57.008Z,96752.30
2018-08-03T14:31:24.410Z,96756.14
2018-08-03T14:33:51.707Z,96758.42
2018-08-03T14:36:18.974Z,96758.70
2018-08-03T14:38:46.240Z,96751.52
2018-08-03T14:41:13.758Z,96752.86
2018-08-03T14:43:40.933Z,96750.13
2018-08-03T14:46:08.324Z,96742.55
2018-08-03T14:48:35.599Z,96737.37
2018-08-03T14:51:02.896Z,96745.06
2018-08-03T14:53:30.249Z,96739.87
2018-08-03T14:55:57.590Z,96727.57
2018-08-03T14:58:24.835Z,96726.79
2018-08-03T15:00:52.191Z,96724.88
2018-08-03T15:03:19.527Z,96731.17
2018-08-03T15:05:46.880Z,96725.09
2018-08-03T15:08:14.254Z,96721.53
2018-08-03T15:10:41.579Z,96719.89
2018-08-03T15:13:08.909Z,96722.66
2018-08-03T15:15:36.295Z,96724.30
2018-08-03T15:18:03.666Z,96723.48
2018-08-03T15:20:31.148Z,96716.41
2018-08-03T15:22:58.576Z,96713.70
2018-08-03T15:25:25.910Z,96709.31
2018-08-03T15:27:53.276Z,96710.64
2018-08-03T15:30:20.620Z,96713.08
2018-08-03T15:32:47.957Z,96708.39
2018-08-03T15:35:15.220Z,96706.63
2018-08-03T15:37:42.578Z,96708.41
2018-08-03T15:40:09.879Z,96702.50
2018-08-03T15:42:37.254Z,96706.70
2018-08-03T15:45:06.190Z,96692.35
2018-08-03T15:47:33.497Z,96699.09
2018-08-03T15:50:00.775Z,96694.84
2018-08-03T15:52:28.114Z,96692.90
2018-08-03T15:54:55.467Z,96692.05
2018-08-03T15:57:22.779Z,96690.67
2018-08-03T15:59:50.061Z,96686.11
2018-08-03T16:02:17.398Z,96687.97
2018-08-03T16:04:44.770Z,96681.56
2018-08-03T16:07:12.174Z,96685.27
2018-08-03T16:09:39.438Z,96677.91
2018-08-03T16:12:06.800Z,96678.66
2018-08-03T16:14:34.161Z,96679.59
2018-08-03T16:17:01.496Z,96672.20
2018-08-03T16:19:28.730Z,96678.91
2018-08-03T16:21:56.064Z,96673.97
2018-08-03T16:24:23.298Z,96668.70
2018-08-03T16:26:50.684Z,96663.95
2018-08-03T16:29:18.047Z,96673.03
2018-08-03T16:31:45.370Z,96673.37
2018-08-03T16:34:12.827Z,96661.40
2018-08-03T16:36:40.095Z,96661.13
2018-08-03T16:39:08.818Z,96658.82
2018-08-03T16:41:36.227Z,96662.11
2018-08-03T16:44:03.520Z,96658.91
2018-08-03T16:46:30.779Z,96652.39
2018-08-03T16:48:58.099Z,96656.17
2018-08-03T16:51:25.520Z,96653.77
2018-08-03T16:53:52.763Z,96655.58
2018-08-03T16:56:20.131Z,96651.84
2018-08-03T16:58:47.461Z,96653.75
2018-08-03T17:01:14.690Z,96638.14
2018-08-03T17:03:42.028Z,96651.58
2018-08-03T17:06:09.348Z,96652.27
2018-08-03T17:08:36.670Z,96651.50
2018-08-03T17:11:03.959Z,96649.30
2018-08-03T17:13:31.249Z,96644.56
2018-08-03T17:15:58.493Z,96646.59
2018-08-03T17:18:25.768Z,96649.36
2018-08-03T17:20:53.080Z,96647.03
2018-08-03T17:23:20.552Z,96650.55
2018-08-03T17:25:47.865Z,96640.91
2018-08-03T17:28:15.235Z,96639.08
2018-08-03T17:30:42.537Z,96640.95
2018-08-03T17:33:09.820Z,96635.83
2018-08-03T17:35:37.187Z,96643.32
2018-08-03T17:38:04.503Z,96646.32
2018-08-03T17:40:31.854Z,96648.85
2018-08-03T17:42:59.196Z,96647.00
2018-08-03T17:45:26.522Z,96630.34
2018-08-03T17:47:53.811Z,96647.57
2018-08-03T17:50:21.180Z,96650.30
2018-08-03T17:52:48.463Z,96651.86
2018-08-03T17:55:15.811Z,96644.59
2018-08-03T17:57:43.218Z,96651.28
2018-08-03T18:00:10.616Z,96639.77
2018-08-03T18:02:37.952Z,96650.63
2018-08-03T18:05:05.296Z,96652.25
2018-08-03T18:07:32.596Z,96659.40
2018-08-03T18:09:59.919Z,96658.24
2018-08-03T18:12:27.210Z,96653.67
2018-08-03T18:14:54.882Z,96661.20
2018-08-03T18:17:22.313Z,96658.20
2018-08-03T18:19:49.534Z,96658.52
2018-08-03T18:22:16.804Z,96664.74
2018-08-03T18:24:44.137Z,96659.46
2018-08-03T18:27:11.466Z,96659.48
2018-08-03T18:29:38.714Z,96661.59
2018-08-03T18:32:06.084Z,96660.33
2018-08-03T18:34:33.355Z,96667.16
2018-08-03T18:37:00.740Z,96673.57
2018-08-03T18:39:28.060Z,96673.53
2018-08-03T18:41:55.352Z,96671.52
2018-08-03T18:44:22.617Z,96669.73
2018-08-03T18:46:49.830Z,96672.42
2018-08-03T18:49:17.167Z,96677.02
2018-08-03T18:51:44.462Z,96673.49
2018-08-03T18:54:11.792Z,96672.30
2018-08-03T18:56:39.111Z,96673.52
2018-08-03T18:59:06.790Z,96684.85
2018-08-03T19:01:34.070Z,96679.43
2018-08-03T19:04:01.380Z,96682.25
2018-08-03T19:06:28.662Z,96686.86
2018-08-03T19:08:55.917Z,96681.11
2018-08-03T19:11:23.306Z,96682.64
2018-08-03T19:13:50.589Z,96691.19
2018-08-03T19:16:17.813Z,96691.72
2018-08-03T19:18:45.074Z,96700.82
2018-08-03T19:21:12.377Z,96705.20
2018-08-03T19:23:39.670Z,96710.09
2018-08-03T19:26:06.950Z,96708.56
2018-08-03T19:28:34.285Z,96719.06
2018-08-03T19:31:01.608Z,96688.68
2018-08-03T19:33:28.905Z,96712.45
2018-08-03T19:35:56.187Z,96718.45
2018-08-03T19:38:23.546Z,96716.11
2018-08-03T19:40:50.916Z,96716.21
2018-08-03T19:43:18.268Z,96714.70
2018-08-03T19:45:45.611Z,96720.50
2018-08-03T19:48:12.982Z,96723.79
2018-08-03T19:50:40.367Z,96718.11
2018-08-03T19:53:07.681Z,96728.25
2018-08-03T19:55:35.097Z,96731.37
2018-08-03T19:58:02.469Z,96727.83
2018-08-03T20:00:29.774Z,96726.50
2018-08-03T20:02:57.071Z,96720.92
2018-08-03T20:05:24.523Z,96725.59
2018-08-03T20:07:51.865Z,96726.42
2018-08-03T20:10:19.166Z,96723.72
2018-08-03T20:12:46.474Z,96722.20
2018-08-03T20:15:13.791Z,96694.20
2018-08-03T20:17:41.098Z,96722.91
2018-08-03T20:20:08.404Z,96719.80
2018-08-03T20:22:35.801Z,96724.61
2018-08-03T20:25:03.463Z,96725.96
2018-08-03T20:27:30.842Z,96722.22
2018-08-03T20:29:58.194Z,96719.12
2018-08-03T20:32:25.617Z,96722.22
2018-08-03T20:34:53.038Z,96726.44
2018-08-03T20:37:20.427Z,96721.04
2018-08-03T20:39:47.732Z,96727.62
2018-08-03T20:42:20.637Z,96724.52
2018-08-03T20:44:47.906Z,96728.49
2018-08-03T20:47:26.510Z,96731.78
2018-08-03T20:49:53.924Z,96728.17
2018-08-03T20:52:21.260Z,96728.86
2018-08-03T20:54:48.615Z,96727.50
2018-08-03T20:57:16.246Z,96729.82
2018-08-03T20:59:43.578Z,96730.23
2018-08-03T21:02:10.894Z,96728.03
2018-08-03T21:04:38.277Z,96732.23
2018-08-03T21:07:05.489Z,96726.23
2018-08-03T21:09:32.744Z,96719.80
2018-08-03T21:12:00.089Z,96716.97
2018-08-03T21:14:27.548Z,96730.87
2018-08-03T21:16:54.867Z,96728.82
2018-08-03T21:19:22.143Z,96726.55
2018-08-03T21:21:49.387Z,96731.47
2018-08-03T21:24:16.749Z,96729.41
2018-08-03T21:26:44.080Z,96725.71
2018-08-03T21:29:11.372Z,96732.02
2018-08-03T21:31:38.620Z,96726.89
2018-08-03T21:34:05.901Z,96727.81
2018-08-03T21:36:33.234Z,96725.70
2018-08-03T21:39:00.468Z,96729.09
2018-08-03T21:41:27.754Z,96733.47
2018-08-03T21:43:55.129Z,96728.12
2018-08-03T21:46:22.441Z,96727.36
2018-08-03T21:48:49.750Z,96721.75
2018-08-03T21:51:17.185Z,96728.39
2018-08-03T21:53:44.612Z,96729.91
2018-08-03T21:56:11.883Z,96724.20
2018-08-03T21:58:39.220Z,96727.49
2018-08-03T22:01:08.939Z,96727.23
2018-08-03T22:03:36.432Z,96723.63
2018-08-03T22:06:03.751Z,96721.92
2018-08-03T22:08:31.090Z,96725.39
2018-08-03T22:10:58.437Z,96724.40
2018-08-03T22:13:25.687Z,96726.86
2018-08-03T22:15:52.977Z,96724.27
2018-08-03T22:18:20.340Z,96729.90
2018-08-03T22:20:48.548Z,96730.15
2018-08-03T22:23:15.906Z,96733.70
2018-08-03T22:25:43.312Z,96728.99
2018-08-03T22:28:10.649Z,96733.70
2018-08-03T22:30:37.955Z,96731.70
2018-08-03T22:33:05.239Z,96730.30
2018-08-03T22:35:32.504Z,96727.28
2018-08-03T22:37:59.869Z,96728.12
2018-08-03T22:40:27.322Z,96721.31
2018-08-03T22:42:54.655Z,96725.04
2018-08-03T22:45:21.930Z,96722.75
2018-08-03T22:47:49.209Z,96723.45
2018-08-03T22:50:17.141Z,96724.97
2018-08-03T22:52:44.390Z,96723.14
2018-08-03T22:55:11.685Z,96723.87
2018-08-03T22:57:39.044Z,96731.09
2018-08-03T23:00:06.759Z,96732.29
2018-08-03T23:02:34.063Z,96727.97
2018-08-03T23:05:01.371Z,96722.22
2018-08-03T23:07:28.730Z,96717.88
2018-08-03T23:09:56.037Z,96715.23
2018-08-03T23:12:23.285Z,96706.42
2018-08-03T23:14:50.797Z,96715.52
2018-08-03T23:17:18.128Z,96712.69
2018-08-03T23:19:45.475Z,96704.92
2018-08-03T23:22:12.813Z,96711.52
2018-08-03T23:24:40.079Z,96709.31
2018-08-03T23:27:07.437Z,96696.07
2018-08-03T23:29:34.761Z,96705.86
2018-08-03T23:32:02.052Z,96711.17
2018-08-03T23:34:29.308Z,96699.52
2018-08-03T23:36:56.643Z,96693.55
2018-08-03T23:39:23.940Z,96694.88
2018-08-03T23:41:51.251Z,96697.66
2018-08-03T23:44:18.494Z,96699.53
2018-08-03T23:46:45.830Z,96700.62
2018-08-03T23:49:13.154Z,96679.77
2018-08-03T23:51:40.503Z,96694.84
2018-08-03T23:54:07.784Z,96693.58
2018-08-03T23:56:35.896Z,96704.92
2018-08-03T23:59:03.263Z,96697.41
